sensor_id;sensor_type;location;lat;lon;timestamp;P1;durP1;ratioP1;P2;durP2;ratioP2
55776;SDS011;54079;44.540;18.784;2023-02-11T00:00:25;34.70;;;19.88;;
55776;SDS011;54079;44.540;18.784;2023-02-11T00:02:51;37.92;;;19.13;;
55776;SDS011;54079;44.540;18.784;2023-02-11T00:05:17;34.55;;;19.20;;
55776;SDS011;54079;44.540;18.784;2023-02-11T00:07:43;31.25;;;18.15;;
55776;SDS011;54079;44.540;18.784;2023-02-11T00:10:09;35.55;;;20.25;;
55776;SDS011;54079;44.540;18.784;2023-02-11T00:12:35;38.67;;;21.17;;
55776;SDS011;54079;44.540;18.784;2023-02-11T00:15:02;33.50;;;19.50;;
55776;SDS011;54079;44.540;18.784;2023-02-11T00:17:30;34.47;;;18.00;;
55776;SDS011;54079;44.540;18.784;2023-02-11T00:19:56;36.83;;;20.42;;
55776;SDS011;54079;44.540;18.784;2023-02-11T00:22:22;37.33;;;21.27;;
55776;SDS011;54079;44.540;18.784;2023-02-11T00:24:48;33.55;;;19.85;;
55776;SDS011;54079;44.540;18.784;2023-02-11T00:27:14;34.80;;;19.75;;
55776;SDS011;54079;44.540;18.784;2023-02-11T00:29:40;34.05;;;20.35;;
55776;SDS011;54079;44.540;18.784;2023-02-11T00:32:06;32.83;;;18.98;;
55776;SDS011;54079;44.540;18.784;2023-02-11T00:34:33;33.08;;;20.20;;
55776;SDS011;54079;44.540;18.784;2023-02-11T00:37:00;32.83;;;20.52;;
55776;SDS011;54079;44.540;18.784;2023-02-11T00:39:26;34.83;;;20.60;;
55776;SDS011;54079;44.540;18.784;2023-02-11T00:41:52;35.67;;;20.35;;
55776;SDS011;54079;44.540;18.784;2023-02-11T00:44:18;34.13;;;20.15;;
55776;SDS011;54079;44.540;18.784;2023-02-11T00:46:45;32.67;;;20.67;;
55776;SDS011;54079;44.540;18.784;2023-02-11T00:49:11;35.58;;;21.17;;
55776;SDS011;54079;44.540;18.784;2023-02-11T00:51:37;33.88;;;19.92;;
55776;SDS011;54079;44.540;18.784;2023-02-11T00:54:03;31.30;;;19.73;;
55776;SDS011;54079;44.540;18.784;2023-02-11T00:56:30;36.08;;;20.25;;
55776;SDS011;54079;44.540;18.784;2023-02-11T00:58:55;35.92;;;21.27;;
55776;SDS011;54079;44.540;18.784;2023-02-11T01:01:22;34.25;;;20.33;;
55776;SDS011;54079;44.540;18.784;2023-02-11T01:03:48;29.75;;;18.52;;
55776;SDS011;54079;44.540;18.784;2023-02-11T01:06:14;34.72;;;20.42;;
55776;SDS011;54079;44.540;18.784;2023-02-11T01:08:40;31.77;;;19.17;;
55776;SDS011;54079;44.540;18.784;2023-02-11T01:11:09;37.50;;;22.42;;
55776;SDS011;54079;44.540;18.784;2023-02-11T01:13:41;34.83;;;20.58;;
55776;SDS011;54079;44.540;18.784;2023-02-11T01:16:08;36.65;;;22.67;;
55776;SDS011;54079;44.540;18.784;2023-02-11T01:18:35;35.83;;;21.88;;
55776;SDS011;54079;44.540;18.784;2023-02-11T01:21:02;47.97;;;26.00;;
55776;SDS011;54079;44.540;18.784;2023-02-11T01:23:28;38.97;;;22.98;;
55776;SDS011;54079;44.540;18.784;2023-02-11T01:25:55;39.88;;;24.65;;
55776;SDS011;54079;44.540;18.784;2023-02-11T01:28:24;35.45;;;22.35;;
55776;SDS011;54079;44.540;18.784;2023-02-11T01:30:52;39.30;;;22.63;;
55776;SDS011;54079;44.540;18.784;2023-02-11T01:33:19;37.22;;;22.08;;
55776;SDS011;54079;44.540;18.784;2023-02-11T01:35:46;38.33;;;22.60;;
55776;SDS011;54079;44.540;18.784;2023-02-11T01:38:18;41.22;;;22.80;;
55776;SDS011;54079;44.540;18.784;2023-02-11T01:40:47;43.55;;;24.73;;
55776;SDS011;54079;44.540;18.784;2023-02-11T01:43:13;43.05;;;25.63;;
55776;SDS011;54079;44.540;18.784;2023-02-11T01:48:15;35.40;;;20.48;;
55776;SDS011;54079;44.540;18.784;2023-02-11T01:50:49;38.95;;;22.92;;
55776;SDS011;54079;44.540;18.784;2023-02-11T01:53:18;37.45;;;23.33;;
55776;SDS011;54079;44.540;18.784;2023-02-11T01:56:03;37.13;;;20.83;;
55776;SDS011;54079;44.540;18.784;2023-02-11T01:58:49;37.83;;;22.63;;
55776;SDS011;54079;44.540;18.784;2023-02-11T02:01:18;40.17;;;24.42;;
55776;SDS011;54079;44.540;18.784;2023-02-11T02:06:29;38.85;;;22.92;;
55776;SDS011;54079;44.540;18.784;2023-02-11T02:09:08;38.45;;;22.35;;
55776;SDS011;54079;44.540;18.784;2023-02-11T02:11:44;43.58;;;25.52;;
55776;SDS011;54079;44.540;18.784;2023-02-11T02:14:10;43.88;;;24.45;;
55776;SDS011;54079;44.540;18.784;2023-02-11T02:16:36;39.67;;;22.80;;
55776;SDS011;54079;44.540;18.784;2023-02-11T02:19:26;45.13;;;25.67;;
55776;SDS011;54079;44.540;18.784;2023-02-11T02:22:29;45.88;;;25.48;;
55776;SDS011;54079;44.540;18.784;2023-02-11T02:27:47;39.78;;;22.73;;
55776;SDS011;54079;44.540;18.784;2023-02-11T02:38:45;47.17;;;25.88;;
55776;SDS011;54079;44.540;18.784;2023-02-11T02:41:16;48.97;;;24.40;;
55776;SDS011;54079;44.540;18.784;2023-02-11T02:43:47;47.85;;;26.45;;
55776;SDS011;54079;44.540;18.784;2023-02-11T02:46:15;47.08;;;25.15;;
55776;SDS011;54079;44.540;18.784;2023-02-11T02:48:43;46.15;;;26.02;;
55776;SDS011;54079;44.540;18.784;2023-02-11T02:51:26;45.88;;;26.40;;
55776;SDS011;54079;44.540;18.784;2023-02-11T03:08:13;52.17;;;29.23;;
55776;SDS011;54079;44.540;18.784;2023-02-11T03:10:44;53.72;;;30.58;;
55776;SDS011;54079;44.540;18.784;2023-02-11T03:13:14;47.97;;;27.80;;
55776;SDS011;54079;44.540;18.784;2023-02-11T03:15:43;52.58;;;30.02;;
55776;SDS011;54079;44.540;18.784;2023-02-11T03:18:14;49.72;;;29.05;;
55776;SDS011;54079;44.540;18.784;2023-02-11T03:20:43;54.58;;;29.35;;
55776;SDS011;54079;44.540;18.784;2023-02-11T03:23:18;56.65;;;31.65;;
55776;SDS011;54079;44.540;18.784;2023-02-11T03:25:58;52.00;;;28.48;;
55776;SDS011;54079;44.540;18.784;2023-02-11T03:31:39;53.95;;;28.23;;
55776;SDS011;54079;44.540;18.784;2023-02-11T03:35:14;50.13;;;29.58;;
55776;SDS011;54079;44.540;18.784;2023-02-11T03:40:05;55.97;;;29.70;;
55776;SDS011;54079;44.540;18.784;2023-02-11T03:42:42;51.97;;;28.00;;
55776;SDS011;54079;44.540;18.784;2023-02-11T03:45:14;49.80;;;25.63;;
55776;SDS011;54079;44.540;18.784;2023-02-11T03:48:00;46.63;;;24.83;;
55776;SDS011;54079;44.540;18.784;2023-02-11T03:50:38;52.95;;;28.42;;
55776;SDS011;54079;44.540;18.784;2023-02-11T03:53:05;50.20;;;28.30;;
55776;SDS011;54079;44.540;18.784;2023-02-11T03:55:34;59.92;;;31.17;;
55776;SDS011;54079;44.540;18.784;2023-02-11T03:58:02;45.40;;;25.80;;
55776;SDS011;54079;44.540;18.784;2023-02-11T04:00:29;43.80;;;27.80;;
55776;SDS011;54079;44.540;18.784;2023-02-11T04:02:56;52.70;;;29.95;;
55776;SDS011;54079;44.540;18.784;2023-02-11T04:05:22;52.22;;;28.98;;
55776;SDS011;54079;44.540;18.784;2023-02-11T04:07:48;56.88;;;28.30;;
55776;SDS011;54079;44.540;18.784;2023-02-11T04:10:14;57.85;;;33.38;;
55776;SDS011;54079;44.540;18.784;2023-02-11T04:12:40;52.33;;;31.23;;
55776;SDS011;54079;44.540;18.784;2023-02-11T04:15:06;54.05;;;29.50;;
55776;SDS011;54079;44.540;18.784;2023-02-11T04:17:32;55.10;;;30.27;;
55776;SDS011;54079;44.540;18.784;2023-02-11T04:19:58;53.42;;;30.67;;
55776;SDS011;54079;44.540;18.784;2023-02-11T04:22:24;57.13;;;31.00;;
55776;SDS011;54079;44.540;18.784;2023-02-11T04:24:50;57.95;;;33.08;;
55776;SDS011;54079;44.540;18.784;2023-02-11T04:27:16;59.55;;;32.47;;
55776;SDS011;54079;44.540;18.784;2023-02-11T04:29:42;56.55;;;33.13;;
55776;SDS011;54079;44.540;18.784;2023-02-11T04:32:09;59.60;;;33.35;;
55776;SDS011;54079;44.540;18.784;2023-02-11T04:34:36;58.05;;;30.92;;
55776;SDS011;54079;44.540;18.784;2023-02-11T04:37:02;53.35;;;31.33;;
55776;SDS011;54079;44.540;18.784;2023-02-11T04:39:27;57.55;;;32.95;;
55776;SDS011;54079;44.540;18.784;2023-02-11T04:41:53;60.42;;;32.80;;
55776;SDS011;54079;44.540;18.784;2023-02-11T04:44:19;51.97;;;31.73;;
55776;SDS011;54079;44.540;18.784;2023-02-11T04:46:45;56.22;;;32.85;;
55776;SDS011;54079;44.540;18.784;2023-02-11T04:49:15;58.95;;;33.55;;
55776;SDS011;54079;44.540;18.784;2023-02-11T04:51:42;60.58;;;34.17;;
55776;SDS011;54079;44.540;18.784;2023-02-11T04:54:11;63.70;;;36.40;;
55776;SDS011;54079;44.540;18.784;2023-02-11T04:56:37;60.10;;;33.65;;
55776;SDS011;54079;44.540;18.784;2023-02-11T04:59:03;57.13;;;33.03;;
55776;SDS011;54079;44.540;18.784;2023-02-11T05:01:31;57.10;;;31.23;;
55776;SDS011;54079;44.540;18.784;2023-02-11T05:03:57;55.17;;;33.05;;
55776;SDS011;54079;44.540;18.784;2023-02-11T05:06:23;63.47;;;33.33;;
55776;SDS011;54079;44.540;18.784;2023-02-11T05:08:49;58.55;;;32.30;;
55776;SDS011;54079;44.540;18.784;2023-02-11T05:11:17;67.10;;;35.88;;
55776;SDS011;54079;44.540;18.784;2023-02-11T05:13:44;54.22;;;29.92;;
55776;SDS011;54079;44.540;18.784;2023-02-11T05:16:11;56.20;;;32.17;;
55776;SDS011;54079;44.540;18.784;2023-02-11T05:18:37;55.50;;;31.50;;
55776;SDS011;54079;44.540;18.784;2023-02-11T05:21:05;60.53;;;33.28;;
55776;SDS011;54079;44.540;18.784;2023-02-11T05:23:32;50.22;;;30.63;;
55776;SDS011;54079;44.540;18.784;2023-02-11T05:25:58;55.00;;;30.63;;
55776;SDS011;54079;44.540;18.784;2023-02-11T05:28:26;57.30;;;30.38;;
55776;SDS011;54079;44.540;18.784;2023-02-11T05:30:52;53.30;;;31.15;;
55776;SDS011;54079;44.540;18.784;2023-02-11T05:33:18;67.03;;;34.42;;
55776;SDS011;54079;44.540;18.784;2023-02-11T05:35:44;52.90;;;31.83;;
55776;SDS011;54079;44.540;18.784;2023-02-11T05:38:10;56.90;;;29.92;;
55776;SDS011;54079;44.540;18.784;2023-02-11T05:40:36;54.53;;;29.15;;
55776;SDS011;54079;44.540;18.784;2023-02-11T05:43:02;60.20;;;31.17;;
55776;SDS011;54079;44.540;18.784;2023-02-11T05:45:28;55.38;;;31.80;;
55776;SDS011;54079;44.540;18.784;2023-02-11T05:47:54;60.75;;;33.75;;
55776;SDS011;54079;44.540;18.784;2023-02-11T05:50:21;58.17;;;30.85;;
55776;SDS011;54079;44.540;18.784;2023-02-11T05:52:47;55.42;;;31.95;;
55776;SDS011;54079;44.540;18.784;2023-02-11T05:55:13;54.20;;;30.83;;
55776;SDS011;54079;44.540;18.784;2023-02-11T05:57:39;55.33;;;32.30;;
55776;SDS011;54079;44.540;18.784;2023-02-11T06:00:05;56.85;;;32.13;;
55776;SDS011;54079;44.540;18.784;2023-02-11T06:02:32;65.07;;;32.83;;
55776;SDS011;54079;44.540;18.784;2023-02-11T06:04:58;64.03;;;33.17;;
55776;SDS011;54079;44.540;18.784;2023-02-11T06:07:24;65.68;;;35.47;;
55776;SDS011;54079;44.540;18.784;2023-02-11T06:09:50;57.33;;;33.40;;
55776;SDS011;54079;44.540;18.784;2023-02-11T06:12:16;71.78;;;35.80;;
55776;SDS011;54079;44.540;18.784;2023-02-11T06:14:42;66.75;;;34.10;;
55776;SDS011;54079;44.540;18.784;2023-02-11T06:17:07;73.45;;;37.05;;
55776;SDS011;54079;44.540;18.784;2023-02-11T06:19:33;72.80;;;39.63;;
55776;SDS011;54079;44.540;18.784;2023-02-11T06:21:59;73.03;;;37.83;;
55776;SDS011;54079;44.540;18.784;2023-02-11T06:24:25;62.67;;;33.83;;
55776;SDS011;54079;44.540;18.784;2023-02-11T06:26:51;68.07;;;34.80;;
55776;SDS011;54079;44.540;18.784;2023-02-11T06:29:17;69.38;;;34.60;;
55776;SDS011;54079;44.540;18.784;2023-02-11T06:31:43;60.35;;;30.20;;
55776;SDS011;54079;44.540;18.784;2023-02-11T06:34:09;63.30;;;34.40;;
55776;SDS011;54079;44.540;18.784;2023-02-11T06:36:37;60.15;;;34.10;;
55776;SDS011;54079;44.540;18.784;2023-02-11T06:39:03;58.75;;;31.02;;
55776;SDS011;54079;44.540;18.784;2023-02-11T06:41:29;60.67;;;33.25;;
55776;SDS011;54079;44.540;18.784;2023-02-11T06:43:55;61.88;;;31.67;;
55776;SDS011;54079;44.540;18.784;2023-02-11T06:46:21;62.38;;;31.90;;
55776;SDS011;54079;44.540;18.784;2023-02-11T06:48:47;54.20;;;31.38;;
55776;SDS011;54079;44.540;18.784;2023-02-11T06:51:14;61.35;;;33.95;;
55776;SDS011;54079;44.540;18.784;2023-02-11T06:53:42;59.13;;;32.58;;
55776;SDS011;54079;44.540;18.784;2023-02-11T06:56:10;60.78;;;33.35;;
55776;SDS011;54079;44.540;18.784;2023-02-11T06:58:38;62.45;;;34.33;;
55776;SDS011;54079;44.540;18.784;2023-02-11T07:01:08;61.95;;;32.38;;
55776;SDS011;54079;44.540;18.784;2023-02-11T07:06:03;60.35;;;32.95;;
55776;SDS011;54079;44.540;18.784;2023-02-11T07:08:31;59.10;;;31.48;;
55776;SDS011;54079;44.540;18.784;2023-02-11T07:10:57;54.20;;;31.60;;
55776;SDS011;54079;44.540;18.784;2023-02-11T07:13:23;56.30;;;32.03;;
55776;SDS011;54079;44.540;18.784;2023-02-11T07:15:49;56.53;;;33.65;;
55776;SDS011;54079;44.540;18.784;2023-02-11T07:18:15;60.40;;;33.78;;
55776;SDS011;54079;44.540;18.784;2023-02-11T07:20:41;63.05;;;35.13;;
55776;SDS011;54079;44.540;18.784;2023-02-11T07:23:07;59.42;;;34.38;;
55776;SDS011;54079;44.540;18.784;2023-02-11T07:25:33;68.43;;;37.03;;
55776;SDS011;54079;44.540;18.784;2023-02-11T07:28:00;58.83;;;34.13;;
55776;SDS011;54079;44.540;18.784;2023-02-11T07:30:26;60.47;;;36.05;;
55776;SDS011;54079;44.540;18.784;2023-02-11T07:32:52;63.25;;;35.75;;
55776;SDS011;54079;44.540;18.784;2023-02-11T07:35:18;67.07;;;36.75;;
55776;SDS011;54079;44.540;18.784;2023-02-11T07:37:43;58.47;;;35.60;;
55776;SDS011;54079;44.540;18.784;2023-02-11T07:40:09;56.10;;;35.05;;
55776;SDS011;54079;44.540;18.784;2023-02-11T07:42:35;60.00;;;37.40;;
55776;SDS011;54079;44.540;18.784;2023-02-11T07:45:01;54.95;;;36.15;;
55776;SDS011;54079;44.540;18.784;2023-02-11T07:47:27;49.47;;;34.22;;
55776;SDS011;54079;44.540;18.784;2023-02-11T07:49:53;55.20;;;35.20;;
55776;SDS011;54079;44.540;18.784;2023-02-11T07:52:19;53.20;;;35.88;;
55776;SDS011;54079;44.540;18.784;2023-02-11T07:54:47;55.25;;;37.95;;
55776;SDS011;54079;44.540;18.784;2023-02-11T07:57:13;49.33;;;33.08;;
55776;SDS011;54079;44.540;18.784;2023-02-11T07:59:39;50.13;;;33.35;;
55776;SDS011;54079;44.540;18.784;2023-02-11T08:02:05;49.33;;;35.75;;
55776;SDS011;54079;44.540;18.784;2023-02-11T08:04:31;50.35;;;36.42;;
55776;SDS011;54079;44.540;18.784;2023-02-11T08:06:56;60.97;;;41.80;;
55776;SDS011;54079;44.540;18.784;2023-02-11T08:09:23;61.15;;;43.53;;
55776;SDS011;54079;44.540;18.784;2023-02-11T08:11:49;64.72;;;46.88;;
55776;SDS011;54079;44.540;18.784;2023-02-11T08:14:15;62.00;;;48.33;;
55776;SDS011;54079;44.540;18.784;2023-02-11T08:16:41;62.20;;;44.67;;
55776;SDS011;54079;44.540;18.784;2023-02-11T08:19:09;60.13;;;46.17;;
55776;SDS011;54079;44.540;18.784;2023-02-11T08:21:37;64.72;;;45.45;;
55776;SDS011;54079;44.540;18.784;2023-02-11T08:24:04;64.07;;;47.28;;
55776;SDS011;54079;44.540;18.784;2023-02-11T08:26:31;60.47;;;44.88;;
55776;SDS011;54079;44.540;18.784;2023-02-11T08:28:59;65.38;;;49.90;;
55776;SDS011;54079;44.540;18.784;2023-02-11T08:31:28;65.30;;;50.05;;
55776;SDS011;54079;44.540;18.784;2023-02-11T08:33:57;63.47;;;49.03;;
55776;SDS011;54079;44.540;18.784;2023-02-11T08:36:25;60.17;;;45.70;;
55776;SDS011;54079;44.540;18.784;2023-02-11T08:38:54;60.78;;;49.15;;
55776;SDS011;54079;44.540;18.784;2023-02-11T08:41:21;62.33;;;47.95;;
55776;SDS011;54079;44.540;18.784;2023-02-11T08:43:47;62.92;;;48.80;;
55776;SDS011;54079;44.540;18.784;2023-02-11T08:46:14;61.55;;;49.85;;
55776;SDS011;54079;44.540;18.784;2023-02-11T08:48:41;59.30;;;45.20;;
55776;SDS011;54079;44.540;18.784;2023-02-11T08:51:08;60.05;;;49.33;;
55776;SDS011;54079;44.540;18.784;2023-02-11T08:56:05;56.92;;;46.67;;
55776;SDS011;54079;44.540;18.784;2023-02-11T08:58:32;58.47;;;48.83;;
55776;SDS011;54079;44.540;18.784;2023-02-11T09:00:58;59.35;;;46.88;;
55776;SDS011;54079;44.540;18.784;2023-02-11T09:03:24;59.40;;;46.70;;
55776;SDS011;54079;44.540;18.784;2023-02-11T09:05:50;57.65;;;46.38;;
55776;SDS011;54079;44.540;18.784;2023-02-11T09:08:19;58.15;;;50.20;;
55776;SDS011;54079;44.540;18.784;2023-02-11T09:10:45;55.38;;;46.17;;
55776;SDS011;54079;44.540;18.784;2023-02-11T09:13:11;49.67;;;38.25;;
55776;SDS011;54079;44.540;18.784;2023-02-11T09:15:37;50.17;;;38.58;;
55776;SDS011;54079;44.540;18.784;2023-02-11T09:18:03;48.55;;;39.13;;
55776;SDS011;54079;44.540;18.784;2023-02-11T09:20:30;46.60;;;36.45;;
55776;SDS011;54079;44.540;18.784;2023-02-11T09:22:56;41.83;;;32.83;;
55776;SDS011;54079;44.540;18.784;2023-02-11T09:25:23;46.33;;;35.83;;
55776;SDS011;54079;44.540;18.784;2023-02-11T09:27:49;43.53;;;36.17;;
55776;SDS011;54079;44.540;18.784;2023-02-11T09:30:16;42.70;;;35.30;;
55776;SDS011;54079;44.540;18.784;2023-02-11T09:32:42;43.38;;;36.42;;
55776;SDS011;54079;44.540;18.784;2023-02-11T09:35:08;42.05;;;34.33;;
55776;SDS011;54079;44.540;18.784;2023-02-11T09:37:34;43.58;;;36.65;;
55776;SDS011;54079;44.540;18.784;2023-02-11T09:40:00;46.30;;;37.72;;
55776;SDS011;54079;44.540;18.784;2023-02-11T09:42:33;41.22;;;33.22;;
55776;SDS011;54079;44.540;18.784;2023-02-11T09:45:02;42.35;;;35.42;;
55776;SDS011;54079;44.540;18.784;2023-02-11T09:47:35;49.53;;;39.92;;
55776;SDS011;54079;44.540;18.784;2023-02-11T09:50:33;48.95;;;37.55;;
55776;SDS011;54079;44.540;18.784;2023-02-11T09:55:52;44.00;;;34.03;;
55776;SDS011;54079;44.540;18.784;2023-02-11T10:01:35;45.25;;;34.72;;
55776;SDS011;54079;44.540;18.784;2023-02-11T10:06:49;51.25;;;35.33;;
55776;SDS011;54079;44.540;18.784;2023-02-11T10:11:57;47.17;;;32.90;;
55776;SDS011;54079;44.540;18.784;2023-02-11T10:22:44;48.70;;;32.92;;
55776;SDS011;54079;44.540;18.784;2023-02-11T10:25:20;47.13;;;31.73;;
55776;SDS011;54079;44.540;18.784;2023-02-11T10:27:49;49.42;;;34.85;;
55776;SDS011;54079;44.540;18.784;2023-02-11T10:30:21;50.55;;;34.22;;
55776;SDS011;54079;44.540;18.784;2023-02-11T10:32:50;45.40;;;31.73;;
55776;SDS011;54079;44.540;18.784;2023-02-11T10:35:20;52.90;;;37.53;;
55776;SDS011;54079;44.540;18.784;2023-02-11T10:37:48;52.10;;;31.42;;
55776;SDS011;54079;44.540;18.784;2023-02-11T10:40:15;48.83;;;33.63;;
55776;SDS011;54079;44.540;18.784;2023-02-11T10:42:47;48.15;;;32.53;;
55776;SDS011;54079;44.540;18.784;2023-02-11T10:45:21;53.28;;;35.25;;
55776;SDS011;54079;44.540;18.784;2023-02-11T10:47:57;42.75;;;29.08;;
55776;SDS011;54079;44.540;18.784;2023-02-11T10:50:25;42.92;;;29.40;;
55776;SDS011;54079;44.540;18.784;2023-02-11T10:53:12;45.92;;;30.08;;
55776;SDS011;54079;44.540;18.784;2023-02-11T10:55:55;48.40;;;32.67;;
55776;SDS011;54079;44.540;18.784;2023-02-11T10:58:31;49.65;;;31.88;;
55776;SDS011;54079;44.540;18.784;2023-02-11T11:01:04;39.17;;;28.80;;
55776;SDS011;54079;44.540;18.784;2023-02-11T11:03:33;44.80;;;32.05;;
55776;SDS011;54079;44.540;18.784;2023-02-11T11:06:04;43.95;;;30.75;;
55776;SDS011;54079;44.540;18.784;2023-02-11T11:08:45;44.22;;;30.27;;
55776;SDS011;54079;44.540;18.784;2023-02-11T11:11:22;48.17;;;32.90;;
55776;SDS011;54079;44.540;18.784;2023-02-11T11:16:21;42.58;;;29.58;;
55776;SDS011;54079;44.540;18.784;2023-02-11T11:21:50;52.17;;;36.40;;
55776;SDS011;54079;44.540;18.784;2023-02-11T11:24:27;50.90;;;35.40;;
55776;SDS011;54079;44.540;18.784;2023-02-11T11:26:59;48.40;;;31.67;;
55776;SDS011;54079;44.540;18.784;2023-02-11T11:32:28;45.97;;;31.98;;
55776;SDS011;54079;44.540;18.784;2023-02-11T11:35:00;42.22;;;29.63;;
55776;SDS011;54079;44.540;18.784;2023-02-11T11:37:36;51.78;;;34.50;;
55776;SDS011;54079;44.540;18.784;2023-02-11T11:40:16;52.28;;;35.05;;
55776;SDS011;54079;44.540;18.784;2023-02-11T11:43:36;57.70;;;38.05;;
55776;SDS011;54079;44.540;18.784;2023-02-11T11:45:37;47.63;;;32.63;;
55776;SDS011;54079;44.540;18.784;2023-02-11T11:48:17;57.28;;;37.08;;
55776;SDS011;54079;44.540;18.784;2023-02-11T11:56:24;56.08;;;35.10;;
55776;SDS011;54079;44.540;18.784;2023-02-11T11:59:05;51.03;;;32.78;;
55776;SDS011;54079;44.540;18.784;2023-02-11T12:26:13;55.53;;;37.10;;
55776;SDS011;54079;44.540;18.784;2023-02-11T12:29:03;54.53;;;35.90;;
55776;SDS011;54079;44.540;18.784;2023-02-11T12:36:43;40.83;;;26.85;;
55776;SDS011;54079;44.540;18.784;2023-02-11T12:39:28;44.75;;;28.45;;
55776;SDS011;54079;44.540;18.784;2023-02-11T12:45:07;42.28;;;27.63;;
55776;SDS011;54079;44.540;18.784;2023-02-11T12:51:15;37.67;;;24.52;;
55776;SDS011;54079;44.540;18.784;2023-02-11T12:53:58;38.35;;;25.20;;
55776;SDS011;54079;44.540;18.784;2023-02-11T12:56:44;38.45;;;24.83;;
55776;SDS011;54079;44.540;18.784;2023-02-11T12:59:16;42.22;;;30.25;;
55776;SDS011;54079;44.540;18.784;2023-02-11T13:01:44;53.28;;;31.70;;
55776;SDS011;54079;44.540;18.784;2023-02-11T13:04:20;47.65;;;29.33;;
55776;SDS011;54079;44.540;18.784;2023-02-11T13:07:03;40.33;;;25.83;;
55776;SDS011;54079;44.540;18.784;2023-02-11T13:09:44;33.33;;;21.10;;
55776;SDS011;54079;44.540;18.784;2023-02-11T13:12:17;39.85;;;28.48;;
55776;SDS011;54079;44.540;18.784;2023-02-11T13:15:04;44.30;;;30.35;;
55776;SDS011;54079;44.540;18.784;2023-02-11T13:17:36;45.30;;;32.15;;
55776;SDS011;54079;44.540;18.784;2023-02-11T13:20:40;46.95;;;30.70;;
55776;SDS011;54079;44.540;18.784;2023-02-11T13:32:05;48.40;;;30.70;;
55776;SDS011;54079;44.540;18.784;2023-02-11T13:35:24;44.65;;;29.35;;
55776;SDS011;54079;44.540;18.784;2023-02-11T13:37:21;42.05;;;29.17;;
55776;SDS011;54079;44.540;18.784;2023-02-11T13:40:09;44.92;;;29.35;;
55776;SDS011;54079;44.540;18.784;2023-02-11T13:42:50;40.80;;;28.63;;
55776;SDS011;54079;44.540;18.784;2023-02-11T13:50:46;43.85;;;29.35;;
55776;SDS011;54079;44.540;18.784;2023-02-11T13:53:15;42.13;;;28.75;;
55776;SDS011;54079;44.540;18.784;2023-02-11T13:55:46;46.25;;;29.52;;
55776;SDS011;54079;44.540;18.784;2023-02-11T13:58:17;40.78;;;27.70;;
55776;SDS011;54079;44.540;18.784;2023-02-11T14:00:57;44.97;;;30.83;;
55776;SDS011;54079;44.540;18.784;2023-02-11T14:03:27;38.17;;;27.20;;
55776;SDS011;54079;44.540;18.784;2023-02-11T14:06:21;40.45;;;27.75;;
55776;SDS011;54079;44.540;18.784;2023-02-11T14:17:31;40.03;;;27.67;;
55776;SDS011;54079;44.540;18.784;2023-02-11T14:19:44;41.05;;;27.60;;
55776;SDS011;54079;44.540;18.784;2023-02-11T14:22:16;50.13;;;33.53;;
55776;SDS011;54079;44.540;18.784;2023-02-11T14:27:39;48.92;;;34.13;;
55776;SDS011;54079;44.540;18.784;2023-02-11T14:30:55;47.03;;;32.17;;
55776;SDS011;54079;44.540;18.784;2023-02-11T14:36:34;39.92;;;27.67;;
55776;SDS011;54079;44.540;18.784;2023-02-11T14:41:54;34.38;;;25.33;;
55776;SDS011;54079;44.540;18.784;2023-02-11T14:44:22;37.65;;;26.23;;
55776;SDS011;54079;44.540;18.784;2023-02-11T14:46:51;39.65;;;27.20;;
55776;SDS011;54079;44.540;18.784;2023-02-11T14:51:55;49.80;;;31.88;;
55776;SDS011;54079;44.540;18.784;2023-02-11T14:54:41;44.70;;;30.35;;
55776;SDS011;54079;44.540;18.784;2023-02-11T14:57:11;38.75;;;26.35;;
55776;SDS011;54079;44.540;18.784;2023-02-11T14:59:56;40.10;;;27.85;;
55776;SDS011;54079;44.540;18.784;2023-02-11T15:02:36;36.67;;;26.52;;
55776;SDS011;54079;44.540;18.784;2023-02-11T15:07:55;39.85;;;26.42;;
55776;SDS011;54079;44.540;18.784;2023-02-11T15:10:42;45.60;;;29.48;;
55776;SDS011;54079;44.540;18.784;2023-02-11T15:13:13;35.65;;;25.75;;
55776;SDS011;54079;44.540;18.784;2023-02-11T15:15:42;40.67;;;25.95;;
55776;SDS011;54079;44.540;18.784;2023-02-11T15:18:15;34.78;;;25.67;;
55776;SDS011;54079;44.540;18.784;2023-02-11T15:20:47;37.42;;;25.60;;
55776;SDS011;54079;44.540;18.784;2023-02-11T15:23:17;41.10;;;26.45;;
55776;SDS011;54079;44.540;18.784;2023-02-11T15:25:47;37.30;;;24.17;;
55776;SDS011;54079;44.540;18.784;2023-02-11T15:28:24;37.67;;;27.25;;
55776;SDS011;54079;44.540;18.784;2023-02-11T15:30:59;37.40;;;24.10;;
55776;SDS011;54079;44.540;18.784;2023-02-11T15:33:30;39.95;;;24.52;;
55776;SDS011;54079;44.540;18.784;2023-02-11T15:36:01;37.30;;;23.75;;
55776;SDS011;54079;44.540;18.784;2023-02-11T15:38:27;35.45;;;23.55;;
55776;SDS011;54079;44.540;18.784;2023-02-11T15:41:00;33.35;;;22.75;;
55776;SDS011;54079;44.540;18.784;2023-02-11T15:43:40;35.95;;;24.88;;
55776;SDS011;54079;44.540;18.784;2023-02-11T15:46:07;38.55;;;25.55;;
55776;SDS011;54079;44.540;18.784;2023-02-11T15:48:42;34.67;;;23.50;;
55776;SDS011;54079;44.540;18.784;2023-02-11T15:53:47;40.67;;;25.73;;
55776;SDS011;54079;44.540;18.784;2023-02-11T15:59:08;46.05;;;29.25;;
55776;SDS011;54079;44.540;18.784;2023-02-11T16:01:40;43.45;;;29.75;;
55776;SDS011;54079;44.540;18.784;2023-02-11T16:04:06;47.67;;;29.65;;
55776;SDS011;54079;44.540;18.784;2023-02-11T16:06:45;46.70;;;28.83;;
55776;SDS011;54079;44.540;18.784;2023-02-11T16:09:20;41.00;;;26.88;;
55776;SDS011;54079;44.540;18.784;2023-02-11T16:12:20;46.65;;;28.15;;
55776;SDS011;54079;44.540;18.784;2023-02-11T16:14:48;41.70;;;25.80;;
55776;SDS011;54079;44.540;18.784;2023-02-11T16:19:43;49.10;;;30.08;;
55776;SDS011;54079;44.540;18.784;2023-02-11T16:22:14;57.63;;;34.35;;
55776;SDS011;54079;44.540;18.784;2023-02-11T16:24:45;66.28;;;36.60;;
55776;SDS011;54079;44.540;18.784;2023-02-11T16:27:27;65.25;;;36.60;;
55776;SDS011;54079;44.540;18.784;2023-02-11T16:30:00;90.65;;;47.80;;
55776;SDS011;54079;44.540;18.784;2023-02-11T16:32:27;85.38;;;45.97;;
55776;SDS011;54079;44.540;18.784;2023-02-11T16:34:55;77.00;;;42.00;;
55776;SDS011;54079;44.540;18.784;2023-02-11T16:37:22;64.05;;;37.03;;
55776;SDS011;54079;44.540;18.784;2023-02-11T16:39:52;56.70;;;34.28;;
55776;SDS011;54079;44.540;18.784;2023-02-11T16:42:19;63.45;;;36.35;;
55776;SDS011;54079;44.540;18.784;2023-02-11T16:44:45;58.63;;;33.60;;
55776;SDS011;54079;44.540;18.784;2023-02-11T16:47:27;58.22;;;33.00;;
55776;SDS011;54079;44.540;18.784;2023-02-11T16:49:55;56.55;;;32.45;;
55776;SDS011;54079;44.540;18.784;2023-02-11T16:52:22;52.60;;;32.00;;
55776;SDS011;54079;44.540;18.784;2023-02-11T16:54:49;60.60;;;35.42;;
55776;SDS011;54079;44.540;18.784;2023-02-11T16:57:16;47.45;;;29.73;;
55776;SDS011;54079;44.540;18.784;2023-02-11T16:59:44;48.53;;;30.10;;
55776;SDS011;54079;44.540;18.784;2023-02-11T17:02:30;45.45;;;27.02;;